Axtel, KY

2:05 AM CDT on September 03, 2014 (GMT -0500)
Eveleigh Road | Change Station
CLOSE
Current Station
Personal Weather Station
Location: Leitchfield, KY
Elevation: 670 ft
Nearby Weather Stations

Elev 670 ft 37.58 °N, 86.34 °W | Updated 13 seconds ago

Clear
Clear
73.2 °F
Feels Like 73.2 °F
N
0.0
Wind Variable Wind from North
Gusts 0.7 mph

Today
High -- | Low -- °F
--% Chance of Precip.
Yesterday
High -- | Low -- °F
Precip. -- in
6:17 AM 7:12 PM
First Quarter, 59% visible
Pressure 30.00 in
Visibility 0.5 miles
Clouds Clear
Dew Point 73 °F
Humidity 99%
Rainfall 0.00 in
Snow Depth Not available.
UV 0 out of 12
Pollen 10.30 out of 12
Ozone Good
PM2.5 Moderate
Flu Activity Not available.
METAR KFTK 030658Z AUTO 00000KT 1/2SM R18/1000FT FG CLR 21/20 A3001 RMK AO2 SLP158 T02050204

More Conditions Fewer Conditions

Pressure 30.00 in
Visibility 0.5 miles
Clouds Clear
Dew Point 73 °F
Humidity 99%
Rainfall 0.00 in
Snow Depth Not available.
UV 0 out of 12
Pollen 10.30 out of 12
Ozone Good
PM2.5 Moderate
Flu Activity Not available.
METAR KFTK 030658Z AUTO 00000KT 1/2SM R18/1000FT FG CLR 21/20 A3001 RMK AO2 SLP158 T02050204

More Conditions Fewer Conditions

10-Day Weather Forecast

Almanac

Astronomy

Sep. 03, 2014 Rise Set
Actual Time 6:17 AM CDT 7:12 PM CDT
Civil Twilight 5:50 AM CDT 7:38 PM CDT
Nautical Twilight 5:19 AM CDT 8:10 PM CDT
Astronomical Twilight 4:46 AM CDT 8:43 PM CDT
Moon 2:50 PM CDT 12:14 AM CDT
Length of Visible Light 13h 47m
Length of Day
12h 54m
Tomorrow will be 2m 20s shorter.
First Quarter, 59% of the Moon is Illuminated
Today
First Quarter
Sep 8
Full
Sep 15
Last Quarter
Sep 24
New
Oct 1
First Quarter

Today's Extremes

State Highs State Lows

Community

WunderPhotos

Upload Photos

1,749,888 photos uploaded!

Nearby

Air Quality

  Air Quality AQ Index Pollutant
Yesterday Good
PM10
Yesterday Good
OZONE
Current Moderate
PM2.5
Current Good
OZONE
Wednesday Moderate
PM2.5
Wednesday Moderate
OZONE
Thursday Moderate
PM2.5
Thursday Moderate
OZONE
Friday Moderate
PM2.5
Friday Moderate
OZONE

Snow Depth

Station Depth Elevation
No new snow has been reported.

Earthquake Activity

City Distance Mag. Time & Date
No recent earthquake activity has been reported nearby.
Minimum magnitude displayed is 2.5.

Coastal Water Temperatures

Place Temperature
No Stations Reporting

Nearby Weather Stations